Matthew — WQZ3847 — position and weather

sailwx.info

Track history (hours):
 
Tides and Currents Weather Stations Pressure Air Temp Water Temp Dewpoint Dewpoint Depression Visibility Wind Speed Wind Dir Waves Ship Positions

Matthew

Owner: C & C BOATS INC, HUNTINGTON BEACH, CA. More information available from US FCC via Universal Licensing System and Coast Guard Vessel Documentation Center.

Last reported at 2018-Jun-10 15:36 UTC. Time now 2018-Jun-20 11:25 UTC.
Position N 34°14' W 119°16'.
Warning: this ship's position is 9 days out of date.

Length 27 m.

Type: Passenger vessel. MMSI: 366952950.

Date/timePositionNaut miles runAvg speedWind from/ knotsBaromVisibWave heightAir tempDewpointWater temp
2018-Jun-10 15:36N 34°14' W 119°16'0 0.0
2018-Jun-10 15:24N 34°14' W 119°16'2 5.8
2018-Jun-10 14:59N 34°16' W 119°18'714.7
2018-Jun-10 14:29N 34°20' W 119°26'5 0.4
2018-Jun-10 01:48N 34°23' W 119°30'410.9
2018-Jun-10 01:29N 34°20' W 119°33'4 0.2
2018-Jun-09 10:26N 34°23' W 119°30'0 0.0
2018-Jun-09 09:56N 34°23' W 119°30'0 0.0
2018-Jun-09 09:02N 34°23' W 119°30'0 0.0
2018-Jun-09 08:59N 34°23' W 119°30'0 0.0
2018-Jun-09 06:50N 34°23' W 119°30'0 0.0
2018-Jun-09 03:50N 34°23' W 119°30'0 0.0
2018-Jun-09 03:29N 34°23' W 119°30'0 0.0
2018-Jun-09 02:53N 34°23' W 119°30'0 0.0
2018-Jun-09 02:20N 34°23' W 119°30'0 0.0
2018-Jun-09 01:53N 34°23' W 119°30'1 2.7
2018-Jun-09 01:30N 34°22' W 119°31'0 0.5
2018-Jun-09 00:59N 34°23' W 119°31'2 2.1
2018-Jun-08 23:48N 34°20' W 119°33'0 0.0
2018-Jun-08 22:46N 34°20' W 119°32'2 6.3
2018-Jun-08 22:27N 34°22' W 119°31'1 1.8
2018-Jun-08 21:50N 34°23' W 119°30'2 1.0
2018-Jun-08 20:01N 34°21' W 119°32'215.9
2018-Jun-08 19:54N 34°23' W 119°30'0 0.0
2018-Jun-08 18:16N 34°23' W 119°30'410.6
2018-Jun-08 17:56N 34°20' W 119°33'0 0.6
2018-Jun-08 17:07N 34°20' W 119°33'0 0.9
2018-Jun-08 16:58N 34°20' W 119°33'2 0.9
2018-Jun-08 14:52N 34°22' W 119°32'2 6.0
2018-Jun-08 14:29N 34°20' W 119°33'2 3.4
2018-Jun-08 14:00N 34°21' W 119°32'2 1.6
2018-Jun-08 12:44N 34°23' W 119°30'0 0.0
2018-Jun-08 11:35N 34°23' W 119°30'0 0.0
2018-Jun-08 06:02N 34°23' W 119°30'0 0.0
2018-Jun-08 05:59N 34°23' W 119°30'0 0.1
2018-Jun-08 01:14N 34°23' W 119°30'311.1
2018-Jun-08 00:59N 34°21' W 119°32'2 3.1
2018-Jun-08 00:29N 34°22' W 119°31'2 1.2
2018-Jun-07 22:43N 34°20' W 119°33'3 9.1
2018-Jun-07 22:22N 34°23' W 119°30'3 7.5
2018-Jun-07 21:56N 34°20' W 119°33'3 7.2
2018-Jun-07 21:29N 34°23' W 119°30'0 0.0
2018-Jun-07 18:44N 34°23' W 119°30'0 0.0
2018-Jun-07 18:29N 34°23' W 119°30'3 3.3
2018-Jun-07 17:34N 34°20' W 119°33'0 0.1
2018-Jun-07 16:40N 34°20' W 119°33'2 5.2
2018-Jun-07 16:19N 34°22' W 119°32'1 4.1
2018-Jun-07 15:59N 34°21' W 119°32'3 1.6
2018-Jun-07 14:18N 34°23' W 119°30'0 0.0
2018-Jun-07 10:30N 34°23' W 119°30'0 0.0
2018-Jun-07 01:58N 34°23' W 119°30'1 0.8
2018-Jun-07 01:13N 34°23' W 119°30'1 0.3
2018-Jun-06 22:29N 34°22' W 119°31'3 5.2
2018-Jun-06 21:57N 34°20' W 119°33'1 0.2
2018-Jun-06 19:09N 34°20' W 119°33'1 4.1
2018-Jun-06 19:00N 34°20' W 119°33'4 2.5
2018-Jun-06 17:34N 34°23' W 119°30'0 0.0
2018-Jun-06 17:16N 34°23' W 119°30'0 0.0
2018-Jun-06 15:16N 34°23' W 119°30'3 6.3
2018-Jun-06 14:49N 34°20' W 119°32'3 6.6
2018-Jun-06 14:21N 34°23' W 119°30'3 6.6
2018-Jun-06 13:52N 34°21' W 119°33'3 0.3
2018-Jun-06 01:49N 34°23' W 119°30'2 4.2
2018-Jun-06 01:22N 34°22' W 119°32'1 3.5
2018-Jun-06 00:59N 34°20' W 119°32'3 1.2
2018-Jun-05 22:18N 34°23' W 119°30'411.9
2018-Jun-05 22:00N 34°20' W 119°33'0 0.3
2018-Jun-05 20:15N 34°20' W 119°33'0 0.0
2018-Jun-05 16:50N 34°20' W 119°33'3 7.6
2018-Jun-05 16:28N 34°23' W 119°31'1 0.5
2018-Jun-05 15:17N 34°23' W 119°30'0 0.1
2018-Jun-05 14:56N 34°23' W 119°30'3 5.2
2018-Jun-05 14:21N 34°20' W 119°33'0 0.8
2018-Jun-05 13:53N 34°21' W 119°33'3 7.9
2018-Jun-05 13:30N 34°23' W 119°31'1 0.1
2018-Jun-05 09:23N 34°23' W 119°30'0 0.0
2018-Jun-05 07:11N 34°23' W 119°30'0 0.0
2018-Jun-05 06:59N 34°23' W 119°30'0 0.0
2018-Jun-05 04:50N 34°23' W 119°30'0 0.0
2018-Jun-05 02:32N 34°23' W 119°30'0 0.0
2018-Jun-05 02:05N 34°23' W 119°30'0 0.0
2018-Jun-05 01:56N 34°23' W 119°30'4 7.4
2018-Jun-05 01:26N 34°20' W 119°33'1 0.4
2018-Jun-04 23:56N 34°20' W 119°33'2 1.7
2018-Jun-04 22:40N 34°22' W 119°31'0 0.2
2018-Jun-04 20:47N 34°22' W 119°31'2 1.9
2018-Jun-04 19:35N 34°20' W 119°33'3 9.7
2018-Jun-04 19:16N 34°23' W 119°31'3 1.9
2018-Jun-04 17:36N 34°20' W 119°33'215.2
2018-Jun-04 17:30N 34°22' W 119°32'0 0.1
2018-Jun-04 14:18N 34°21' W 119°32'0 0.8
2018-Jun-04 13:59N 34°21' W 119°32'2 1.9
2018-Jun-04 12:48N 34°23' W 119°30'0 0.0
2018-Jun-04 12:15N 34°23' W 119°30'0 0.0
2018-Jun-04 11:51N 34°23' W 119°30'0 0.0
2018-Jun-04 11:30N 34°23' W 119°30'0 0.0
2018-Jun-04 10:11N 34°23' W 119°30'0 0.0
2018-Jun-04 09:38N 34°23' W 119°30'0 0.0
2018-Jun-04 08:20N 34°23' W 119°30'0 0.0
2018-Jun-04 07:44N 34°23' W 119°30'0 0.0
2018-Jun-04 07:05N 34°23' W 119°30'0 0.0
2018-Jun-04 05:44N 34°23' W 119°30'0 0.0
2018-Jun-04 05:29N 34°23' W 119°30'0 0.0
2018-Jun-04 04:02N 34°23' W 119°30'0 0.0
2018-Jun-04 02:17N 34°23' W 119°30'0 0.0
2018-Jun-04 01:59N 34°23' W 119°30'3 6.6
2018-Jun-04 01:30N 34°20' W 119°33'1 1.2
2018-Jun-04 01:00N 34°20' W 119°33'2 0.8
2018-Jun-03 23:05N 34°20' W 119°31'114.6
2018-Jun-03 22:59N 34°20' W 119°30'13 3.7
2018-Jun-03 19:35N 34°14' W 119°16'0 0.0
2018-Jun-03 19:29N 34°14' W 119°16'0 0.0
2018-Jun-03 18:47N 34°14' W 119°16'0 0.0
2018-Jun-03 18:29N 34°14' W 119°16'0 0.0
2018-Jun-03 16:59N 34°14' W 119°16'0 0.5
2018-Jun-03 16:29N 34°15' W 119°16'612.1
2018-Jun-03 15:59N 34°18' W 119°22'815.5
2018-Jun-03 15:28N 34°22' W 119°30'3 3.1
2018-Jun-03 14:31N 34°20' W 119°33'0 0.0
2018-Jun-03 14:22N 34°20' W 119°33'3 8.7
2018-Jun-03 14:00N 34°23' W 119°30'0 0.3
2018-Jun-03 13:25N 34°23' W 119°31'1 0.2
2018-Jun-03 10:34N 34°23' W 119°30'0 0.1
2018-Jun-03 10:13N 34°23' W 119°30'0 0.0
2018-Jun-03 09:04N 34°23' W 119°30'0 0.1
2018-Jun-03 08:55N 34°23' W 119°30'0 0.0
2018-Jun-03 08:25N 34°23' W 119°30'0 0.0
2018-Jun-03 07:10N 34°23' W 119°30'0 0.0
2018-Jun-03 04:58N 34°23' W 119°30'0 0.0
2018-Jun-03 03:07N 34°23' W 119°30'0 0.0
2018-Jun-03 02:52N 34°23' W 119°30'0 0.0
2018-Jun-03 02:25N 34°23' W 119°30'0 0.0
2018-Jun-03 01:59N 34°23' W 119°30'3 1.9
2018-Jun-03 00:27N 34°20' W 119°33'0 0.0
2018-Jun-02 23:51N 34°20' W 119°33'0 0.0
2018-Jun-02 23:21N 34°20' W 119°33'0 0.4
2018-Jun-02 22:56N 34°21' W 119°32'0 0.0
2018-Jun-02 17:48N 34°20' W 119°33'0 0.0
2018-Jun-02 17:09N 34°20' W 119°33'0 0.0
2018-Jun-02 15:48N 34°20' W 119°33'0 0.1
2018-Jun-02 14:54N 34°20' W 119°33'0 0.0
2018-Jun-02 14:28N 34°20' W 119°33'2 3.0
2018-Jun-02 13:58N 34°22' W 119°32'2 0.2
2018-Jun-02 04:12N 34°23' W 119°30'0 0.0
2018-Jun-02 03:42N 34°23' W 119°30'1 0.1
2018-Jun-01 22:32N 34°23' W 119°31'1 4.5
2018-Jun-01 22:12N 34°22' W 119°32'2 0.5
2018-Jun-01 18:39N 34°20' W 119°33'0 0.6
2018-Jun-01 18:27N 34°20' W 119°33'2 3.8
2018-Jun-01 17:57N 34°22' W 119°32'2 0.7
2018-Jun-01 15:49N 34°20' W 119°33'0 0.2
2018-Jun-01 13:37N 34°21' W 119°32'312.4
2018-Jun-01 13:23N 34°23' W 119°30'1 0.9
2018-Jun-01 12:48N 34°23' W 119°30'0 0.0
2018-Jun-01 12:30N 34°23' W 119°30'0 0.0
2018-Jun-01 09:36N 34°23' W 119°30'0 0.0
2018-Jun-01 06:46N 34°23' W 119°30'1 0.2
2018-Jun-01 01:42N 34°22' W 119°31'  
Track history (hours):
 
Tides and Currents Weather Stations Pressure Air Temp Water Temp Dewpoint Dewpoint Depression Visibility Wind Speed Wind Dir Waves Ship Positions

Matthew

Owner: C & C BOATS INC, HUNTINGTON BEACH, CA. More information available from US FCC via Universal Licensing System and Coast Guard Vessel Documentation Center.

Last reported at 2018-Jun-10 15:36 UTC. Time now 2018-Jun-20 11:25 UTC.
Position N 34°14' W 119°16'.
Warning: this ship's position is 9 days out of date.

Length 27 m.

Type: Passenger vessel. MMSI: 366952950.

Date/timePositionNaut miles runAvg speedWind from/ knotsBaromVisibWave heightAir tempDewpointWater temp
2018-Jun-10 15:36N 34°14' W 119°16'0 0.0
2018-Jun-10 15:24N 34°14' W 119°16'2 5.8
2018-Jun-10 14:59N 34°16' W 119°18'714.7
2018-Jun-10 14:29N 34°20' W 119°26'5 0.4
2018-Jun-10 01:48N 34°23' W 119°30'410.9
2018-Jun-10 01:29N 34°20' W 119°33'4 0.2
2018-Jun-09 10:26N 34°23' W 119°30'0 0.0
2018-Jun-09 09:56N 34°23' W 119°30'0 0.0
2018-Jun-09 09:02N 34°23' W 119°30'0 0.0
2018-Jun-09 08:59N 34°23' W 119°30'0 0.0
2018-Jun-09 06:50N 34°23' W 119°30'0 0.0
2018-Jun-09 03:50N 34°23' W 119°30'0 0.0
2018-Jun-09 03:29N 34°23' W 119°30'0 0.0
2018-Jun-09 02:53N 34°23' W 119°30'0 0.0
2018-Jun-09 02:20N 34°23' W 119°30'0 0.0
2018-Jun-09 01:53N 34°23' W 119°30'1 2.7
2018-Jun-09 01:30N 34°22' W 119°31'0 0.5
2018-Jun-09 00:59N 34°23' W 119°31'2 2.1
2018-Jun-08 23:48N 34°20' W 119°33'0 0.0
2018-Jun-08 22:46N 34°20' W 119°32'2 6.3
2018-Jun-08 22:27N 34°22' W 119°31'1 1.8
2018-Jun-08 21:50N 34°23' W 119°30'2 1.0
2018-Jun-08 20:01N 34°21' W 119°32'215.9
2018-Jun-08 19:54N 34°23' W 119°30'0 0.0
2018-Jun-08 18:16N 34°23' W 119°30'410.6
2018-Jun-08 17:56N 34°20' W 119°33'0 0.6
2018-Jun-08 17:07N 34°20' W 119°33'0 0.9
2018-Jun-08 16:58N 34°20' W 119°33'2 0.9
2018-Jun-08 14:52N 34°22' W 119°32'2 6.0
2018-Jun-08 14:29N 34°20' W 119°33'2 3.4
2018-Jun-08 14:00N 34°21' W 119°32'2 1.6
2018-Jun-08 12:44N 34°23' W 119°30'0 0.0
2018-Jun-08 11:35N 34°23' W 119°30'0 0.0
2018-Jun-08 06:02N 34°23' W 119°30'0 0.0
2018-Jun-08 05:59N 34°23' W 119°30'0 0.1
2018-Jun-08 01:14N 34°23' W 119°30'311.1
2018-Jun-08 00:59N 34°21' W 119°32'2 3.1
2018-Jun-08 00:29N 34°22' W 119°31'2 1.2
2018-Jun-07 22:43N 34°20' W 119°33'3 9.1
2018-Jun-07 22:22N 34°23' W 119°30'3 7.5
2018-Jun-07 21:56N 34°20' W 119°33'3 7.2
2018-Jun-07 21:29N 34°23' W 119°30'0 0.0
2018-Jun-07 18:44N 34°23' W 119°30'0 0.0
2018-Jun-07 18:29N 34°23' W 119°30'3 3.3
2018-Jun-07 17:34N 34°20' W 119°33'0 0.1
2018-Jun-07 16:40N 34°20' W 119°33'2 5.2
2018-Jun-07 16:19N 34°22' W 119°32'1 4.1
2018-Jun-07 15:59N 34°21' W 119°32'3 1.6
2018-Jun-07 14:18N 34°23' W 119°30'0 0.0
2018-Jun-07 10:30N 34°23' W 119°30'0 0.0
2018-Jun-07 01:58N 34°23' W 119°30'1 0.8
2018-Jun-07 01:13N 34°23' W 119°30'1 0.3
2018-Jun-06 22:29N 34°22' W 119°31'3 5.2
2018-Jun-06 21:57N 34°20' W 119°33'1 0.2
2018-Jun-06 19:09N 34°20' W 119°33'1 4.1
2018-Jun-06 19:00N 34°20' W 119°33'4 2.5
2018-Jun-06 17:34N 34°23' W 119°30'0 0.0
2018-Jun-06 17:16N 34°23' W 119°30'0 0.0
2018-Jun-06 15:16N 34°23' W 119°30'3 6.3
2018-Jun-06 14:49N 34°20' W 119°32'3 6.6
2018-Jun-06 14:21N 34°23' W 119°30'3 6.6
2018-Jun-06 13:52N 34°21' W 119°33'3 0.3
2018-Jun-06 01:49N 34°23' W 119°30'2 4.2
2018-Jun-06 01:22N 34°22' W 119°32'1 3.5
2018-Jun-06 00:59N 34°20' W 119°32'3 1.2
2018-Jun-05 22:18N 34°23' W 119°30'411.9
2018-Jun-05 22:00N 34°20' W 119°33'0 0.3
2018-Jun-05 20:15N 34°20' W 119°33'0 0.0
2018-Jun-05 16:50N 34°20' W 119°33'3 7.6
2018-Jun-05 16:28N 34°23' W 119°31'1 0.5
2018-Jun-05 15:17N 34°23' W 119°30'0 0.1
2018-Jun-05 14:56N 34°23' W 119°30'3 5.2
2018-Jun-05 14:21N 34°20' W 119°33'0 0.8
2018-Jun-05 13:53N 34°21' W 119°33'3 7.9
2018-Jun-05 13:30N 34°23' W 119°31'1 0.1
2018-Jun-05 09:23N 34°23' W 119°30'0 0.0
2018-Jun-05 07:11N 34°23' W 119°30'0 0.0
2018-Jun-05 06:59N 34°23' W 119°30'0 0.0
2018-Jun-05 04:50N 34°23' W 119°30'0 0.0
2018-Jun-05 02:32N 34°23' W 119°30'0 0.0
2018-Jun-05 02:05N 34°23' W 119°30'0 0.0
2018-Jun-05 01:56N 34°23' W 119°30'4 7.4
2018-Jun-05 01:26N 34°20' W 119°33'1 0.4
2018-Jun-04 23:56N 34°20' W 119°33'2 1.7
2018-Jun-04 22:40N 34°22' W 119°31'0 0.2
2018-Jun-04 20:47N 34°22' W 119°31'2 1.9
2018-Jun-04 19:35N 34°20' W 119°33'3 9.7
2018-Jun-04 19:16N 34°23' W 119°31'3 1.9
2018-Jun-04 17:36N 34°20' W 119°33'215.2
2018-Jun-04 17:30N 34°22' W 119°32'0 0.1
2018-Jun-04 14:18N 34°21' W 119°32'0 0.8
2018-Jun-04 13:59N 34°21' W 119°32'2 1.9
2018-Jun-04 12:48N 34°23' W 119°30'0 0.0
2018-Jun-04 12:15N 34°23' W 119°30'0 0.0
2018-Jun-04 11:51N 34°23' W 119°30'0 0.0
2018-Jun-04 11:30N 34°23' W 119°30'0 0.0
2018-Jun-04 10:11N 34°23' W 119°30'0 0.0
2018-Jun-04 09:38N 34°23' W 119°30'0 0.0
2018-Jun-04 08:20N 34°23' W 119°30'0 0.0
2018-Jun-04 07:44N 34°23' W 119°30'0 0.0
2018-Jun-04 07:05N 34°23' W 119°30'0 0.0
2018-Jun-04 05:44N 34°23' W 119°30'0 0.0
2018-Jun-04 05:29N 34°23' W 119°30'0 0.0
2018-Jun-04 04:02N 34°23' W 119°30'0 0.0
2018-Jun-04 02:17N 34°23' W 119°30'0 0.0
2018-Jun-04 01:59N 34°23' W 119°30'3 6.6
2018-Jun-04 01:30N 34°20' W 119°33'1 1.2
2018-Jun-04 01:00N 34°20' W 119°33'2 0.8
2018-Jun-03 23:05N 34°20' W 119°31'114.6
2018-Jun-03 22:59N 34°20' W 119°30'13 3.7
2018-Jun-03 19:35N 34°14' W 119°16'0 0.0
2018-Jun-03 19:29N 34°14' W 119°16'0 0.0
2018-Jun-03 18:47N 34°14' W 119°16'0 0.0
2018-Jun-03 18:29N 34°14' W 119°16'0 0.0
2018-Jun-03 16:59N 34°14' W 119°16'0 0.5
2018-Jun-03 16:29N 34°15' W 119°16'612.1
2018-Jun-03 15:59N 34°18' W 119°22'815.5
2018-Jun-03 15:28N 34°22' W 119°30'3 3.1
2018-Jun-03 14:31N 34°20' W 119°33'0 0.0
2018-Jun-03 14:22N 34°20' W 119°33'3 8.7
2018-Jun-03 14:00N 34°23' W 119°30'0 0.3
2018-Jun-03 13:25N 34°23' W 119°31'1 0.2
2018-Jun-03 10:34N 34°23' W 119°30'0 0.1
2018-Jun-03 10:13N 34°23' W 119°30'0 0.0
2018-Jun-03 09:04N 34°23' W 119°30'0 0.1
2018-Jun-03 08:55N 34°23' W 119°30'0 0.0
2018-Jun-03 08:25N 34°23' W 119°30'0 0.0
2018-Jun-03 07:10N 34°23' W 119°30'0 0.0
2018-Jun-03 04:58N 34°23' W 119°30'0 0.0
2018-Jun-03 03:07N 34°23' W 119°30'0 0.0
2018-Jun-03 02:52N 34°23' W 119°30'0 0.0
2018-Jun-03 02:25N 34°23' W 119°30'0 0.0
2018-Jun-03 01:59N 34°23' W 119°30'3 1.9
2018-Jun-03 00:27N 34°20' W 119°33'0 0.0
2018-Jun-02 23:51N 34°20' W 119°33'0 0.0
2018-Jun-02 23:21N 34°20' W 119°33'0 0.4
2018-Jun-02 22:56N 34°21' W 119°32'0 0.0
2018-Jun-02 17:48N 34°20' W 119°33'0 0.0
2018-Jun-02 17:09N 34°20' W 119°33'0 0.0
2018-Jun-02 15:48N 34°20' W 119°33'0 0.1
2018-Jun-02 14:54N 34°20' W 119°33'0 0.0
2018-Jun-02 14:28N 34°20' W 119°33'2 3.0
2018-Jun-02 13:58N 34°22' W 119°32'2 0.2
2018-Jun-02 04:12N 34°23' W 119°30'0 0.0
2018-Jun-02 03:42N 34°23' W 119°30'1 0.1
2018-Jun-01 22:32N 34°23' W 119°31'1 4.5
2018-Jun-01 22:12N 34°22' W 119°32'2 0.5
2018-Jun-01 18:39N 34°20' W 119°33'0 0.6
2018-Jun-01 18:27N 34°20' W 119°33'2 3.8
2018-Jun-01 17:57N 34°22' W 119°32'2 0.7
2018-Jun-01 15:49N 34°20' W 119°33'0 0.2
2018-Jun-01 13:37N 34°21' W 119°32'312.4
2018-Jun-01 13:23N 34°23' W 119°30'1 0.9
2018-Jun-01 12:48N 34°23' W 119°30'0 0.0
2018-Jun-01 12:30N 34°23' W 119°30'0 0.0
2018-Jun-01 09:36N 34°23' W 119°30'0 0.0
2018-Jun-01 06:46N 34°23' W 119°30'1 0.2
2018-Jun-01 01:42N 34°22' W 119°31'  

Dump ship's entire track history